createdAt,value
2022-12-11T00:00:42.934Z,2.25
2022-12-11T00:01:46.422Z,2.34
2022-12-11T00:02:48.299Z,2.37
2022-12-11T00:03:51.731Z,2.28
2022-12-11T00:04:56.194Z,2.23
2022-12-11T00:05:58.732Z,2.23
2022-12-11T00:07:01.665Z,2.23
2022-12-11T00:08:07.915Z,2.24
2022-12-11T00:09:13.694Z,2.22
2022-12-11T00:10:15.674Z,2.15
2022-12-11T00:11:19.154Z,2.05
2022-12-11T00:12:21.050Z,2.11
2022-12-11T00:13:25.140Z,2.09
2022-12-11T00:14:27.114Z,2.12
2022-12-11T00:15:31.657Z,2.06
2022-12-11T00:16:33.628Z,2.03
2022-12-11T00:17:38.346Z,2.04
2022-12-11T00:18:41.052Z,2.01
2022-12-11T00:19:44.060Z,1.96
2022-12-11T00:20:46.251Z,1.96
2022-12-11T00:21:48.207Z,1.92
2022-12-11T00:22:50.161Z,1.99
2022-12-11T00:23:52.554Z,1.94
2022-12-11T00:24:57.545Z,1.85
2022-12-11T00:25:59.431Z,1.88
2022-12-11T00:27:01.420Z,1.97
2022-12-11T00:28:03.282Z,1.88
2022-12-11T00:29:14.500Z,2.10
2022-12-11T00:30:16.677Z,2.08
2022-12-11T00:31:19.306Z,1.96
2022-12-11T00:32:21.918Z,1.94
2022-12-11T00:33:24.685Z,2.00
2022-12-11T00:34:26.798Z,2.20
2022-12-11T00:35:28.946Z,2.25
2022-12-11T00:36:33.092Z,2.10
2022-12-11T00:37:36.739Z,2.11
2022-12-11T00:38:44.725Z,2.06
2022-12-11T00:39:49.123Z,1.91
2022-12-11T00:40:52.338Z,1.97
2022-12-11T00:42:03.517Z,1.99
2022-12-11T00:43:09.204Z,1.95
2022-12-11T00:44:14.400Z,1.97
2022-12-11T00:45:17.617Z,2.04
2022-12-11T00:46:20.952Z,2.10
2022-12-11T00:47:24.665Z,2.12
2022-12-11T00:48:28.390Z,2.10
2022-12-11T00:49:30.969Z,2.20
2022-12-11T00:50:32.887Z,2.19
2022-12-11T00:51:35.039Z,2.15
2022-12-11T00:52:37.365Z,2.15
2022-12-11T00:53:41.058Z,2.13
2022-12-11T00:54:47.124Z,2.14
2022-12-11T00:55:49.306Z,2.13
2022-12-11T00:56:58.468Z,2.09
2022-12-11T00:58:01.042Z,2.17
2022-12-11T00:59:09.362Z,2.14
2022-12-11T01:00:13.242Z,2.30
2022-12-11T01:01:22.128Z,2.25
2022-12-11T01:02:36.314Z,2.26
2022-12-11T01:03:42.426Z,2.30
2022-12-11T01:04:51.989Z,2.31
2022-12-11T01:05:56.660Z,2.15
2022-12-11T01:07:01.062Z,2.16
2022-12-11T01:08:05.766Z,2.13
2022-12-11T01:09:27.818Z,2.15
2022-12-11T01:10:37.141Z,2.11
2022-12-11T01:11:40.892Z,2.16
2022-12-11T01:12:47.882Z,2.16
2022-12-11T01:13:52.136Z,2.19
2022-12-11T01:14:59.332Z,2.12
2022-12-11T01:16:06.399Z,2.25
2022-12-11T01:17:09.907Z,2.21
2022-12-11T01:18:13.059Z,2.32
2022-12-11T01:19:15.282Z,2.35
2022-12-11T01:20:20.083Z,2.24
2022-12-11T01:21:25.414Z,2.21
2022-12-11T01:22:37.719Z,2.06
2022-12-11T01:23:41.554Z,2.06
2022-12-11T01:24:46.096Z,2.14
2022-12-11T01:25:50.302Z,2.07
2022-12-11T01:26:54.460Z,2.05
2022-12-11T01:27:56.775Z,1.97
2022-12-11T01:28:59.271Z,2.02
2022-12-11T01:30:01.700Z,1.97
2022-12-11T01:31:10.211Z,1.97
2022-12-11T01:32:13.957Z,2.03
2022-12-11T01:33:16.354Z,1.93
2022-12-11T01:34:20.249Z,2.01
2022-12-11T01:35:23.163Z,2.00
2022-12-11T01:36:25.047Z,1.93
2022-12-11T01:37:28.101Z,1.94
2022-12-11T01:38:33.274Z,2.09
2022-12-11T01:39:36.393Z,1.96
2022-12-11T01:40:40.527Z,1.93
2022-12-11T01:41:42.984Z,1.94
2022-12-11T01:42:46.082Z,1.95
2022-12-11T01:44:04.214Z,1.97
2022-12-11T01:45:26.871Z,1.90
2022-12-11T01:46:32.493Z,1.85
2022-12-11T01:47:37.748Z,1.86
2022-12-11T01:48:42.449Z,1.89
2022-12-11T01:49:45.793Z,1.86
2022-12-11T01:50:54.953Z,1.89
2022-12-11T01:52:04.851Z,1.90
2022-12-11T01:53:11.806Z,1.88
2022-12-11T01:54:16.697Z,1.83
2022-12-11T01:55:20.693Z,1.82
2022-12-11T01:56:24.377Z,1.80
2022-12-11T01:57:26.808Z,1.84
2022-12-11T01:58:34.057Z,1.73
2022-12-11T01:59:37.878Z,1.79
2022-12-11T02:00:40.794Z,1.74
2022-12-11T02:01:46.053Z,1.70
2022-12-11T02:02:50.698Z,1.77
2022-12-11T02:03:54.176Z,1.73
2022-12-11T02:04:56.063Z,1.73
2022-12-11T02:06:01.833Z,1.84
2022-12-11T02:07:04.134Z,1.77
2022-12-11T02:08:07.383Z,1.79
2022-12-11T02:09:15.068Z,1.68
2022-12-11T02:10:20.982Z,1.66
2022-12-11T02:11:27.283Z,1.62
2022-12-11T02:12:39.421Z,1.64
2022-12-11T02:13:49.506Z,1.61
2022-12-11T02:15:06.534Z,1.66
2022-12-11T02:16:40.609Z,1.68
2022-12-11T02:17:47.020Z,1.66
2022-12-11T02:18:54.875Z,1.62
2022-12-11T02:20:06.061Z,1.69
2022-12-11T02:21:18.731Z,1.68
2022-12-11T02:22:40.778Z,1.69
2022-12-11T02:23:48.535Z,1.63
2022-12-11T02:24:58.095Z,1.62
2022-12-11T02:26:12.445Z,1.66
2022-12-11T02:27:21.327Z,1.64
2022-12-11T02:28:34.181Z,1.58
2022-12-11T02:29:42.500Z,1.58
2022-12-11T02:30:47.800Z,1.61
2022-12-11T02:31:53.949Z,1.64
2022-12-11T02:32:58.931Z,1.70
2022-12-11T02:34:10.301Z,1.69
2022-12-11T02:35:30.771Z,1.75
2022-12-11T02:36:35.621Z,1.69
2022-12-11T02:37:39.085Z,1.70
2022-12-11T02:38:43.471Z,1.77
2022-12-11T02:39:46.484Z,1.67
2022-12-11T02:40:49.976Z,1.77
2022-12-11T02:41:52.531Z,1.73
2022-12-11T02:42:56.356Z,1.75
2022-12-11T02:43:58.783Z,1.74
2022-12-11T02:45:01.801Z,1.74
2022-12-11T02:46:10.086Z,1.72
2022-12-11T02:47:14.405Z,1.70
2022-12-11T02:48:17.321Z,1.74
2022-12-11T02:49:20.887Z,1.67
2022-12-11T02:50:23.930Z,1.67
2022-12-11T02:51:29.904Z,1.72
2022-12-11T02:52:32.735Z,1.80
2022-12-11T02:53:38.296Z,1.79
2022-12-11T02:54:41.733Z,1.79
2022-12-11T02:55:46.372Z,1.71
2022-12-11T02:56:51.703Z,1.73
2022-12-11T02:58:02.906Z,1.67
2022-12-11T02:59:09.135Z,1.70
2022-12-11T03:00:12.993Z,1.75
2022-12-11T03:01:15.039Z,1.70
2022-12-11T03:02:18.953Z,1.70
2022-12-11T03:03:22.008Z,1.79
2022-12-11T03:04:25.123Z,1.76
2022-12-11T03:05:29.143Z,1.82
2022-12-11T03:06:40.194Z,1.74
2022-12-11T03:07:43.939Z,1.71
2022-12-11T03:08:47.578Z,1.82
2022-12-11T03:09:53.355Z,1.82
2022-12-11T03:10:56.316Z,1.79
2022-12-11T03:11:59.137Z,1.86
2022-12-11T03:13:01.326Z,1.79
2022-12-11T03:14:03.419Z,1.74
2022-12-11T03:15:11.547Z,1.75
2022-12-11T03:16:21.132Z,1.77
2022-12-11T03:17:24.479Z,1.84
2022-12-11T03:18:32.941Z,1.75
2022-12-11T03:19:39.488Z,1.67
2022-12-11T03:20:43.973Z,1.72
2022-12-11T03:21:52.588Z,1.68
2022-12-11T03:23:01.844Z,1.67
2022-12-11T03:24:05.386Z,1.67
2022-12-11T03:25:24.004Z,1.61
2022-12-11T03:26:29.570Z,1.61
2022-12-11T03:27:50.215Z,1.61
2022-12-11T03:28:58.737Z,1.62
2022-12-11T03:30:05.780Z,1.60
2022-12-11T03:31:13.981Z,1.67
2022-12-11T03:32:20.721Z,1.56
2022-12-11T03:33:35.580Z,1.68
2022-12-11T03:34:41.799Z,1.58
2022-12-11T03:35:56.252Z,1.62
2022-12-11T03:37:00.358Z,1.66
2022-12-11T03:38:05.806Z,1.61
2022-12-11T03:39:09.995Z,1.60
2022-12-11T03:40:14.087Z,1.54
2022-12-11T03:41:18.567Z,1.65
2022-12-11T03:42:23.084Z,1.63
2022-12-11T03:43:26.589Z,1.60
2022-12-11T03:44:30.215Z,1.65
2022-12-11T03:45:32.927Z,1.63
2022-12-11T03:46:37.139Z,1.47
2022-12-11T03:47:41.331Z,1.51
2022-12-11T03:48:47.641Z,1.57
2022-12-11T03:49:51.834Z,1.53
2022-12-11T03:50:56.768Z,1.47
2022-12-11T03:52:00.682Z,1.47
2022-12-11T03:53:03.289Z,1.59
2022-12-11T03:54:07.135Z,1.62
2022-12-11T03:55:09.782Z,1.57
2022-12-11T03:56:13.617Z,1.51
2022-12-11T03:57:17.048Z,1.43
2022-12-11T03:58:22.422Z,1.54
2022-12-11T03:59:24.422Z,1.46
2022-12-11T04:00:26.383Z,1.48
2022-12-11T04:01:29.713Z,1.52
2022-12-11T04:02:31.707Z,1.58
2022-12-11T04:03:33.850Z,1.55
2022-12-11T04:04:39.616Z,1.52
2022-12-11T04:05:42.224Z,1.49
2022-12-11T04:06:44.592Z,1.44
2022-12-11T04:07:46.412Z,1.41
2022-12-11T04:08:50.319Z,1.47
2022-12-11T04:09:53.098Z,1.52
2022-12-11T04:11:13.783Z,1.42
2022-12-11T04:12:15.589Z,1.64
2022-12-11T04:13:18.492Z,1.65
2022-12-11T04:14:40.216Z,1.70
2022-12-11T04:15:43.226Z,1.59
2022-12-11T04:16:45.262Z,1.53
2022-12-11T04:18:09.382Z,1.46
2022-12-11T04:19:30.341Z,1.54
2022-12-11T04:20:51.277Z,1.81
2022-12-11T04:22:11.849Z,1.79
2022-12-11T04:23:33.954Z,1.70
2022-12-11T04:24:36.108Z,1.65
2022-12-11T04:25:37.972Z,1.64
2022-12-11T04:26:41.139Z,1.65
2022-12-11T04:27:51.910Z,1.67
2022-12-11T04:28:53.825Z,1.60
2022-12-11T04:30:03.320Z,1.69
2022-12-11T04:31:05.590Z,1.67
2022-12-11T04:32:09.206Z,1.58
2022-12-11T04:33:22.126Z,1.56
2022-12-11T04:34:28.336Z,1.62
2022-12-11T04:35:34.316Z,1.65
2022-12-11T04:36:39.375Z,1.59
2022-12-11T04:37:46.759Z,1.64
2022-12-11T04:38:54.421Z,1.55
2022-12-11T04:40:01.646Z,1.63
2022-12-11T04:41:17.755Z,1.60
2022-12-11T04:42:19.920Z,1.58
2022-12-11T04:43:23.800Z,1.64
2022-12-11T04:44:25.846Z,1.58
2022-12-11T04:45:30.340Z,1.65
2022-12-11T04:46:35.180Z,1.62
2022-12-11T04:47:43.338Z,1.58
2022-12-11T04:48:52.381Z,1.57
2022-12-11T04:49:58.464Z,1.51
2022-12-11T04:51:01.473Z,1.39
2022-12-11T04:52:10.485Z,1.45
2022-12-11T04:53:17.009Z,1.34
2022-12-11T04:54:21.926Z,1.36
2022-12-11T04:55:24.175Z,1.41
2022-12-11T04:56:26.174Z,1.38
2022-12-11T04:57:30.221Z,1.32
2022-12-11T04:58:32.123Z,1.30
2022-12-11T04:59:36.043Z,1.26
2022-12-11T05:00:37.883Z,1.32
2022-12-11T05:01:40.619Z,1.25
2022-12-11T05:02:42.904Z,1.26
2022-12-11T05:03:45.340Z,1.28
2022-12-11T05:04:49.269Z,1.26
2022-12-11T05:05:55.088Z,1.24
2022-12-11T05:06:59.174Z,1.23
2022-12-11T05:08:01.907Z,1.20
2022-12-11T05:09:04.195Z,1.23
2022-12-11T05:10:07.086Z,1.22
2022-12-11T05:11:12.226Z,1.27
2022-12-11T05:12:15.209Z,1.26
2022-12-11T05:13:19.538Z,1.32
2022-12-11T05:14:22.142Z,1.27
2022-12-11T05:15:27.871Z,1.25
2022-12-11T05:16:30.975Z,1.16
2022-12-11T05:17:34.670Z,1.17
2022-12-11T05:18:36.643Z,1.19
2022-12-11T05:19:38.713Z,1.21
2022-12-11T05:20:43.976Z,1.25
2022-12-11T05:21:48.292Z,1.28
2022-12-11T05:22:56.066Z,1.21
2022-12-11T05:24:01.016Z,1.22
2022-12-11T05:25:05.657Z,1.31
2022-12-11T05:26:11.224Z,1.21
2022-12-11T05:27:15.587Z,1.22
2022-12-11T05:28:17.799Z,1.12
2022-12-11T05:29:20.780Z,1.25
2022-12-11T05:30:23.281Z,1.20
2022-12-11T05:31:28.649Z,1.22
2022-12-11T05:32:30.637Z,1.24
2022-12-11T05:33:36.389Z,1.26
2022-12-11T05:34:39.235Z,1.21
2022-12-11T05:35:46.685Z,1.18
2022-12-11T05:36:48.690Z,1.15
2022-12-11T05:37:51.423Z,1.24
2022-12-11T05:38:53.786Z,1.16
2022-12-11T05:40:21.100Z,1.20
2022-12-11T05:41:24.177Z,1.15
2022-12-11T05:42:28.924Z,1.14
2022-12-11T05:43:32.291Z,1.17
2022-12-11T05:44:34.420Z,1.15
2022-12-11T05:45:38.028Z,1.13
2022-12-11T05:46:43.270Z,1.15
2022-12-11T05:48:11.354Z,1.12
2022-12-11T05:49:17.527Z,1.14
2022-12-11T05:50:28.293Z,1.21
2022-12-11T05:53:38.078Z,1.21
2022-12-11T05:54:44.498Z,1.18
2022-12-11T05:55:53.361Z,1.25
2022-12-11T05:56:59.342Z,1.21
2022-12-11T06:00:20.619Z,1.29
2022-12-11T06:01:24.358Z,1.22
2022-12-11T06:02:36.645Z,1.25
2022-12-11T06:03:49.983Z,1.16
2022-12-11T06:05:01.864Z,1.22
2022-12-11T06:06:07.757Z,1.20
2022-12-11T06:07:15.630Z,1.24
2022-12-11T06:08:29.886Z,1.13
2022-12-11T06:09:38.418Z,1.14
2022-12-11T06:10:51.636Z,1.19
2022-12-11T06:12:02.557Z,1.17
2022-12-11T06:13:06.091Z,1.13
2022-12-11T06:14:11.524Z,1.15
2022-12-11T06:15:15.857Z,1.19
2022-12-11T06:16:19.192Z,1.13
2022-12-11T06:17:30.474Z,1.20
2022-12-11T06:18:38.077Z,1.21
2022-12-11T06:19:46.788Z,1.18
2022-12-11T06:20:52.942Z,1.22
2022-12-11T06:22:06.469Z,1.25
2022-12-11T06:23:20.108Z,1.38
2022-12-11T06:25:11.416Z,1.26
2022-12-11T06:26:15.568Z,1.23
2022-12-11T06:27:19.588Z,1.19
2022-12-11T06:28:22.352Z,1.20
2022-12-11T06:29:24.916Z,1.25
2022-12-11T06:30:38.262Z,1.25
2022-12-11T06:31:41.552Z,1.26
2022-12-11T06:32:44.442Z,1.22
2022-12-11T06:33:46.877Z,1.28
2022-12-11T06:34:48.773Z,1.23
2022-12-11T06:35:50.670Z,1.29
2022-12-11T06:36:52.689Z,1.26
2022-12-11T06:37:59.190Z,1.25
2022-12-11T06:39:01.334Z,1.26
2022-12-11T06:40:10.005Z,1.22
2022-12-11T06:41:12.482Z,1.19
2022-12-11T06:42:14.372Z,1.28
2022-12-11T06:43:16.893Z,1.25
2022-12-11T06:44:22.072Z,1.23
2022-12-11T06:45:26.185Z,1.26
2022-12-11T06:46:38.622Z,1.36
2022-12-11T06:47:50.697Z,1.37
2022-12-11T06:48:59.136Z,1.25
2022-12-11T06:50:08.559Z,1.27
2022-12-11T06:51:40.647Z,1.25
2022-12-11T06:52:46.142Z,1.23
2022-12-11T06:53:58.106Z,1.22
2022-12-11T06:55:10.918Z,1.22
2022-12-11T06:56:17.320Z,1.11
2022-12-11T06:57:29.327Z,1.18
2022-12-11T06:58:35.260Z,1.13
2022-12-11T06:59:44.738Z,1.22
2022-12-11T07:00:49.031Z,1.29
2022-12-11T07:01:53.717Z,1.28
2022-12-11T07:02:57.576Z,1.34
2022-12-11T07:04:02.854Z,1.36
2022-12-11T07:05:09.546Z,1.28
2022-12-11T07:06:14.503Z,1.31
2022-12-11T07:08:41.966Z,1.20
2022-12-11T07:09:47.242Z,1.26
2022-12-11T07:10:51.023Z,1.29
2022-12-11T07:11:53.871Z,1.37
2022-12-11T07:13:01.740Z,1.31
2022-12-11T07:14:05.762Z,1.37
2022-12-11T07:15:09.383Z,1.28
2022-12-11T07:16:19.805Z,1.32
2022-12-11T07:17:23.578Z,1.45
2022-12-11T07:18:28.798Z,1.38
2022-12-11T07:19:36.779Z,1.65
2022-12-11T07:20:45.442Z,1.46
2022-12-11T07:21:54.138Z,1.37
2022-12-11T07:22:58.743Z,1.34
2022-12-11T07:24:04.139Z,1.39
2022-12-11T07:25:37.052Z,1.25
2022-12-11T07:26:41.934Z,1.14
2022-12-11T07:27:44.795Z,1.26
2022-12-11T07:29:03.365Z,1.17
2022-12-11T07:30:12.904Z,1.28
2022-12-11T07:31:18.150Z,1.22
2022-12-11T07:32:27.959Z,1.25
2022-12-11T07:33:32.816Z,1.27
2022-12-11T07:34:38.500Z,1.32
2022-12-11T07:35:42.731Z,1.24
2022-12-11T07:36:51.332Z,1.24
2022-12-11T07:37:56.334Z,1.24
2022-12-11T07:39:06.761Z,1.25
2022-12-11T07:40:15.913Z,1.30
2022-12-11T07:41:28.578Z,1.34
2022-12-11T07:42:36.549Z,1.27
2022-12-11T07:43:41.284Z,1.18
2022-12-11T07:44:43.519Z,1.30
2022-12-11T07:45:46.543Z,1.34
2022-12-11T07:46:50.735Z,1.25
2022-12-11T07:47:56.914Z,1.14
2022-12-11T07:49:01.274Z,1.23
2022-12-11T07:50:04.571Z,1.33
2022-12-11T07:51:09.423Z,1.28
2022-12-11T07:52:16.100Z,1.29
2022-12-11T07:53:22.275Z,1.33
2022-12-11T07:54:24.969Z,1.36
2022-12-11T07:55:30.097Z,1.29
2022-12-11T07:56:43.701Z,1.29
2022-12-11T07:57:53.354Z,1.32
2022-12-11T07:58:58.245Z,1.35
2022-12-11T08:00:01.051Z,1.44
2022-12-11T08:01:13.287Z,1.49
2022-12-11T08:02:20.882Z,1.43
2022-12-11T08:03:25.480Z,1.37
2022-12-11T08:04:33.277Z,1.29
2022-12-11T08:05:38.487Z,1.37
2022-12-11T08:06:42.995Z,1.17
2022-12-11T08:07:48.940Z,1.32
2022-12-11T08:08:52.196Z,1.39
2022-12-11T08:09:59.143Z,1.34
2022-12-11T08:11:03.071Z,1.30
2022-12-11T08:12:06.808Z,1.24
2022-12-11T08:13:15.501Z,1.23
2022-12-11T08:14:19.966Z,1.16
2022-12-11T08:15:22.783Z,1.24
2022-12-11T08:16:26.721Z,1.28
2022-12-11T08:17:33.914Z,1.28
2022-12-11T08:18:53.272Z,1.36
2022-12-11T08:19:59.538Z,1.40
2022-12-11T08:21:09.683Z,1.50
2022-12-11T08:22:17.524Z,1.46
2022-12-11T08:23:20.575Z,1.45
2022-12-11T08:24:24.713Z,1.50
2022-12-11T08:25:33.029Z,1.45
2022-12-11T08:26:42.566Z,1.44
2022-12-11T08:27:48.038Z,1.43
2022-12-11T08:28:52.997Z,1.41
2022-12-11T08:29:55.437Z,1.39
2022-12-11T08:31:01.142Z,1.40
2022-12-11T08:32:11.926Z,1.43
2022-12-11T08:33:14.480Z,1.32
2022-12-11T08:34:19.727Z,1.36
2022-12-11T08:35:22.083Z,1.33
2022-12-11T08:36:25.839Z,1.39
2022-12-11T08:37:30.373Z,1.34
2022-12-11T08:38:32.357Z,1.37
2022-12-11T08:39:35.284Z,1.45
2022-12-11T08:40:38.709Z,1.54
2022-12-11T08:41:42.504Z,1.54
2022-12-11T08:42:49.428Z,1.55
2022-12-11T08:43:55.658Z,1.55
2022-12-11T08:44:58.894Z,1.76
2022-12-11T08:46:02.169Z,1.85
2022-12-11T08:47:04.376Z,1.70
2022-12-11T08:48:07.172Z,1.65
2022-12-11T08:49:14.498Z,1.57
2022-12-11T08:50:29.316Z,1.58
2022-12-11T08:51:34.049Z,1.65
2022-12-11T08:52:37.637Z,1.70
2022-12-11T08:53:41.244Z,1.61
2022-12-11T08:54:45.885Z,1.54
2022-12-11T08:55:48.218Z,1.63
2022-12-11T08:56:53.541Z,1.61
2022-12-11T08:58:00.788Z,1.69
2022-12-11T08:59:04.264Z,1.71
2022-12-11T09:00:07.491Z,1.74
2022-12-11T09:01:14.560Z,1.82
2022-12-11T09:02:16.894Z,1.74
2022-12-11T09:03:19.098Z,1.63
2022-12-11T09:04:24.473Z,1.73
2022-12-11T09:05:27.387Z,1.64
2022-12-11T09:06:30.455Z,1.48
2022-12-11T09:07:32.560Z,1.44
2022-12-11T09:08:35.099Z,1.37
2022-12-11T09:09:37.302Z,1.45
2022-12-11T09:10:40.622Z,1.34
2022-12-11T09:11:43.259Z,1.43
2022-12-11T09:12:46.362Z,1.56
2022-12-11T09:13:48.865Z,1.60
2022-12-11T09:14:50.891Z,1.54
2022-12-11T09:15:55.873Z,1.69
2022-12-11T09:16:57.940Z,1.56
2022-12-11T09:18:01.221Z,1.59
2022-12-11T09:19:04.857Z,1.65
2022-12-11T09:20:07.812Z,1.55
2022-12-11T09:21:14.073Z,1.68
2022-12-11T09:22:17.146Z,1.65
2022-12-11T09:23:20.815Z,1.83
2022-12-11T09:24:23.965Z,1.80
2022-12-11T09:25:26.236Z,1.72
2022-12-11T09:26:29.070Z,1.80
2022-12-11T09:27:31.420Z,1.69
2022-12-11T09:28:36.823Z,1.77
2022-12-11T09:29:41.584Z,1.58
2022-12-11T09:30:45.462Z,1.81
2022-12-11T09:31:51.879Z,1.73
2022-12-11T09:32:58.310Z,1.79
2022-12-11T09:34:04.722Z,1.68
2022-12-11T09:35:11.600Z,1.67
2022-12-11T09:36:14.850Z,1.61
2022-12-11T09:37:22.554Z,1.63
2022-12-11T09:38:25.686Z,1.60
2022-12-11T09:39:28.266Z,1.55
2022-12-11T09:40:32.363Z,1.50
2022-12-11T09:41:47.611Z,1.44
2022-12-11T09:43:09.633Z,1.45
2022-12-11T09:44:30.307Z,1.39
2022-12-11T09:45:39.839Z,1.39
2022-12-11T09:46:51.569Z,1.29
2022-12-11T09:47:57.405Z,1.32
2022-12-11T09:49:06.622Z,1.26
2022-12-11T09:50:25.517Z,1.27
2022-12-11T09:51:50.903Z,1.32
2022-12-11T09:53:06.113Z,1.38
2022-12-11T09:54:12.671Z,1.34
2022-12-11T09:55:21.679Z,1.33
2022-12-11T09:56:36.104Z,1.29
2022-12-11T09:58:15.801Z,1.27
2022-12-11T09:59:26.380Z,1.27
2022-12-11T10:00:43.070Z,1.24
2022-12-11T10:02:26.199Z,1.24
2022-12-11T10:03:40.345Z,1.27
2022-12-11T10:05:03.781Z,1.31
2022-12-11T10:06:33.495Z,1.21
2022-12-11T10:07:48.957Z,1.26
2022-12-11T10:08:51.914Z,1.33
2022-12-11T10:10:34.545Z,1.28
2022-12-11T10:11:49.241Z,1.18
2022-12-11T10:13:12.902Z,1.25
2022-12-11T10:14:24.140Z,1.35
2022-12-11T10:15:37.388Z,1.34
2022-12-11T10:17:01.271Z,1.28
2022-12-11T10:18:08.001Z,1.32
2022-12-11T10:19:21.864Z,1.32
2022-12-11T10:20:35.610Z,1.35
2022-12-11T10:21:52.614Z,1.39
2022-12-11T10:23:00.022Z,1.43
2022-12-11T10:24:29.185Z,1.36
2022-12-11T10:26:02.312Z,1.30
2022-12-11T10:27:54.812Z,1.32
2022-12-11T10:29:07.803Z,1.27
2022-12-11T10:31:02.326Z,1.26
2022-12-11T10:35:27.492Z,1.27
2022-12-11T10:36:33.685Z,1.33
2022-12-11T10:37:45.659Z,1.28
2022-12-11T10:38:53.823Z,1.29
2022-12-11T10:39:57.619Z,1.24
2022-12-11T10:41:04.394Z,1.44
2022-12-11T10:42:24.926Z,1.30
2022-12-11T10:43:40.372Z,1.22
2022-12-11T10:45:01.166Z,1.22
2022-12-11T10:46:06.650Z,1.31
2022-12-11T10:49:40.995Z,1.15
2022-12-11T10:51:05.993Z,1.10
2022-12-11T10:52:29.836Z,1.08
2022-12-11T10:55:42.287Z,1.06
2022-12-11T10:56:48.464Z,1.19
2022-12-11T10:58:17.091Z,1.25
2022-12-11T10:59:32.041Z,1.24
2022-12-11T11:00:37.209Z,1.27
2022-12-11T11:01:41.296Z,1.26
2022-12-11T11:02:50.790Z,1.32
2022-12-11T11:03:53.891Z,1.33
2022-12-11T11:04:58.226Z,1.22
2022-12-11T11:06:18.712Z,1.21
2022-12-11T11:07:37.938Z,1.21
2022-12-11T11:09:42.082Z,1.33
2022-12-11T11:10:52.633Z,1.16
2022-12-11T11:12:09.101Z,1.23
2022-12-11T11:13:17.177Z,1.32
2022-12-11T11:14:22.702Z,1.33
2022-12-11T11:15:29.415Z,1.33
2022-12-11T11:16:32.140Z,1.30
2022-12-11T11:17:52.727Z,1.42
2022-12-11T11:18:58.192Z,1.60
2022-12-11T11:20:06.120Z,1.45
2022-12-11T11:21:16.567Z,1.46
2022-12-11T11:22:21.434Z,1.44
2022-12-11T11:23:24.291Z,1.41
2022-12-11T11:24:39.968Z,1.28
2022-12-11T11:25:49.669Z,1.25
2022-12-11T11:28:29.487Z,1.22
2022-12-11T11:29:37.379Z,1.15
2022-12-11T11:30:42.000Z,1.09
2022-12-11T11:31:45.057Z,0.97
2022-12-11T11:32:54.492Z,0.85
2022-12-11T11:33:58.877Z,1.01
2022-12-11T11:35:16.941Z,0.98
2022-12-11T11:36:38.187Z,0.97
2022-12-11T11:37:46.542Z,1.13
2022-12-11T11:39:16.021Z,1.04
2022-12-11T11:40:18.075Z,1.13
2022-12-11T11:41:32.494Z,1.14
2022-12-11T11:42:47.084Z,1.16
2022-12-11T11:44:25.317Z,1.14
2022-12-11T11:45:37.422Z,1.21
2022-12-11T11:47:15.698Z,1.07
2022-12-11T11:55:06.938Z,1.10
2022-12-11T11:56:33.620Z,1.18
2022-12-11T12:00:19.060Z,1.22
2022-12-11T12:01:35.549Z,1.13
2022-12-11T12:02:42.878Z,0.93
2022-12-11T12:03:54.110Z,1.03
2022-12-11T12:05:06.232Z,1.11
2022-12-11T12:06:40.265Z,1.02
2022-12-11T12:08:50.017Z,1.00
2022-12-11T12:15:48.116Z,0.92
2022-12-11T12:17:12.316Z,0.89
2022-12-11T12:18:36.605Z,1.10
2022-12-11T12:23:36.635Z,1.10
2022-12-11T12:26:55.532Z,1.03
2022-12-11T12:31:56.835Z,1.15
2022-12-11T12:33:35.631Z,1.14
2022-12-11T12:35:16.868Z,1.12
2022-12-11T12:36:26.884Z,1.10
2022-12-11T12:37:45.189Z,0.84
2022-12-11T12:39:27.629Z,1.02
2022-12-11T12:40:55.593Z,0.94
2022-12-11T12:42:25.311Z,1.03
2022-12-11T12:44:16.614Z,0.96
2022-12-11T12:46:30.991Z,1.10
2022-12-11T13:02:52.125Z,1.06
2022-12-11T13:05:04.458Z,1.05
